sensor_id;sensor_type;location;lat;lon;timestamp;temperature;humidity
26599;DHT22;14240;51.064;16.612;2023-08-20T00:01:56;23.70;99.90
26599;DHT22;14240;51.064;16.612;2023-08-20T00:04:26;23.70;99.90
26599;DHT22;14240;51.064;16.612;2023-08-20T00:06:52;23.60;99.90
26599;DHT22;14240;51.064;16.612;2023-08-20T00:09:18;23.70;99.90
26599;DHT22;14240;51.064;16.612;2023-08-20T00:11:44;23.60;99.90
26599;DHT22;14240;51.064;16.612;2023-08-20T00:14:16;23.60;99.90
26599;DHT22;14240;51.064;16.612;2023-08-20T00:16:43;23.60;99.90
26599;DHT22;14240;51.064;16.612;2023-08-20T00:19:09;23.60;99.90
26599;DHT22;14240;51.064;16.612;2023-08-20T00:21:41;23.60;99.90
26599;DHT22;14240;51.064;16.612;2023-08-20T00:24:08;23.60;99.90
26599;DHT22;14240;51.064;16.612;2023-08-20T00:26:34;23.60;99.90
26599;DHT22;14240;51.064;16.612;2023-08-20T00:28:59;23.60;99.90
26599;DHT22;14240;51.064;16.612;2023-08-20T00:31:25;23.60;99.90
26599;DHT22;14240;51.064;16.612;2023-08-20T00:33:51;23.60;99.90
26599;DHT22;14240;51.064;16.612;2023-08-20T00:36:16;23.60;99.90
26599;DHT22;14240;51.064;16.612;2023-08-20T00:38:42;23.60;99.90
26599;DHT22;14240;51.064;16.612;2023-08-20T00:41:07;23.60;99.90
26599;DHT22;14240;51.064;16.612;2023-08-20T00:43:33;23.60;99.90
26599;DHT22;14240;51.064;16.612;2023-08-20T00:45:59;23.60;99.90
26599;DHT22;14240;51.064;16.612;2023-08-20T00:48:25;23.60;99.90
26599;DHT22;14240;51.064;16.612;2023-08-20T00:50:51;23.60;99.90
26599;DHT22;14240;51.064;16.612;2023-08-20T00:53:17;23.60;99.90
26599;DHT22;14240;51.064;16.612;2023-08-20T00:55:43;23.50;99.90
26599;DHT22;14240;51.064;16.612;2023-08-20T00:58:09;23.50;99.90
26599;DHT22;14240;51.064;16.612;2023-08-20T01:00:35;23.50;99.90
26599;DHT22;14240;51.064;16.612;2023-08-20T01:03:01;23.50;99.90
26599;DHT22;14240;51.064;16.612;2023-08-20T01:05:31;23.40;99.90
26599;DHT22;14240;51.064;16.612;2023-08-20T01:10:56;23.20;99.90
26599;DHT22;14240;51.064;16.612;2023-08-20T01:13:23;23.10;99.90
26599;DHT22;14240;51.064;16.612;2023-08-20T01:15:48;22.90;99.90
26599;DHT22;14240;51.064;16.612;2023-08-20T01:18:14;22.90;99.90
26599;DHT22;14240;51.064;16.612;2023-08-20T01:20:45;22.80;99.90
26599;DHT22;14240;51.064;16.612;2023-08-20T01:28:52;22.60;99.90
26599;DHT22;14240;51.064;16.612;2023-08-20T01:31:18;22.70;99.90
26599;DHT22;14240;51.064;16.612;2023-08-20T01:33:45;22.50;99.90
26599;DHT22;14240;51.064;16.612;2023-08-20T01:36:11;22.40;99.90
26599;DHT22;14240;51.064;16.612;2023-08-20T01:38:37;22.40;99.90
26599;DHT22;14240;51.064;16.612;2023-08-20T01:41:03;22.30;99.90
26599;DHT22;14240;51.064;16.612;2023-08-20T01:43:29;22.20;99.90
26599;DHT22;14240;51.064;16.612;2023-08-20T01:45:55;22.20;99.90
26599;DHT22;14240;51.064;16.612;2023-08-20T01:48:21;22.10;99.90
26599;DHT22;14240;51.064;16.612;2023-08-20T01:50:46;22.10;99.90
26599;DHT22;14240;51.064;16.612;2023-08-20T01:53:12;22.10;99.90
26599;DHT22;14240;51.064;16.612;2023-08-20T01:55:38;22.10;99.90
26599;DHT22;14240;51.064;16.612;2023-08-20T01:58:03;22.00;99.90
26599;DHT22;14240;51.064;16.612;2023-08-20T02:00:29;22.00;99.90
26599;DHT22;14240;51.064;16.612;2023-08-20T02:02:56;22.00;99.90
26599;DHT22;14240;51.064;16.612;2023-08-20T02:05:21;22.00;99.90
26599;DHT22;14240;51.064;16.612;2023-08-20T02:07:47;22.00;99.90
26599;DHT22;14240;51.064;16.612;2023-08-20T02:10:13;21.90;99.90
26599;DHT22;14240;51.064;16.612;2023-08-20T02:12:39;21.80;99.90
26599;DHT22;14240;51.064;16.612;2023-08-20T02:15:05;21.80;99.90
26599;DHT22;14240;51.064;16.612;2023-08-20T02:17:31;21.70;99.90
26599;DHT22;14240;51.064;16.612;2023-08-20T02:19:56;21.80;99.90
26599;DHT22;14240;51.064;16.612;2023-08-20T02:22:22;21.70;99.90
26599;DHT22;14240;51.064;16.612;2023-08-20T02:24:47;21.60;99.90
26599;DHT22;14240;51.064;16.612;2023-08-20T02:27:13;21.60;99.90
26599;DHT22;14240;51.064;16.612;2023-08-20T02:29:39;21.50;99.90
26599;DHT22;14240;51.064;16.612;2023-08-20T02:32:04;21.50;99.90
26599;DHT22;14240;51.064;16.612;2023-08-20T02:34:30;21.50;99.90
26599;DHT22;14240;51.064;16.612;2023-08-20T02:36:55;21.40;99.90
26599;DHT22;14240;51.064;16.612;2023-08-20T02:39:21;21.30;99.90
26599;DHT22;14240;51.064;16.612;2023-08-20T02:41:47;21.30;99.90
26599;DHT22;14240;51.064;16.612;2023-08-20T02:44:12;21.30;99.90
26599;DHT22;14240;51.064;16.612;2023-08-20T02:46:38;21.20;99.90
26599;DHT22;14240;51.064;16.612;2023-08-20T02:49:06;21.10;99.90
26599;DHT22;14240;51.064;16.612;2023-08-20T02:51:31;21.10;99.90
26599;DHT22;14240;51.064;16.612;2023-08-20T02:53:57;21.10;99.90
26599;DHT22;14240;51.064;16.612;2023-08-20T02:56:22;20.90;99.90
26599;DHT22;14240;51.064;16.612;2023-08-20T02:58:48;20.80;99.90
26599;DHT22;14240;51.064;16.612;2023-08-20T03:01:25;20.80;99.90
26599;DHT22;14240;51.064;16.612;2023-08-20T03:03:51;20.70;99.90
26599;DHT22;14240;51.064;16.612;2023-08-20T03:06:16;20.70;99.90
26599;DHT22;14240;51.064;16.612;2023-08-20T03:08:42;20.70;99.90
26599;DHT22;14240;51.064;16.612;2023-08-20T03:11:07;20.70;99.90
26599;DHT22;14240;51.064;16.612;2023-08-20T03:13:33;20.60;99.90
26599;DHT22;14240;51.064;16.612;2023-08-20T03:15:59;20.60;99.90
26599;DHT22;14240;51.064;16.612;2023-08-20T03:18:25;20.60;99.90
26599;DHT22;14240;51.064;16.612;2023-08-20T03:20:51;20.60;99.90
26599;DHT22;14240;51.064;16.612;2023-08-20T03:23:17;20.60;99.90
26599;DHT22;14240;51.064;16.612;2023-08-20T03:25:42;20.70;99.90
26599;DHT22;14240;51.064;16.612;2023-08-20T03:28:08;20.70;99.90
26599;DHT22;14240;51.064;16.612;2023-08-20T03:30:34;20.80;99.90
26599;DHT22;14240;51.064;16.612;2023-08-20T03:32:59;20.80;99.90
26599;DHT22;14240;51.064;16.612;2023-08-20T03:35:25;20.90;99.90
26599;DHT22;14240;51.064;16.612;2023-08-20T03:37:51;21.00;99.90
26599;DHT22;14240;51.064;16.612;2023-08-20T03:40:16;21.10;99.90
26599;DHT22;14240;51.064;16.612;2023-08-20T03:42:43;21.10;99.90
26599;DHT22;14240;51.064;16.612;2023-08-20T03:45:09;21.20;99.90
26599;DHT22;14240;51.064;16.612;2023-08-20T03:47:35;21.20;99.90
26599;DHT22;14240;51.064;16.612;2023-08-20T03:50:02;21.30;99.90
26599;DHT22;14240;51.064;16.612;2023-08-20T03:52:28;21.30;99.90
26599;DHT22;14240;51.064;16.612;2023-08-20T03:54:53;21.40;99.90
26599;DHT22;14240;51.064;16.612;2023-08-20T03:57:19;21.40;99.90
26599;DHT22;14240;51.064;16.612;2023-08-20T03:59:44;21.40;99.90
26599;DHT22;14240;51.064;16.612;2023-08-20T04:02:11;21.40;99.90
26599;DHT22;14240;51.064;16.612;2023-08-20T04:04:36;21.50;99.90
26599;DHT22;14240;51.064;16.612;2023-08-20T04:07:02;21.50;99.90
26599;DHT22;14240;51.064;16.612;2023-08-20T04:09:28;21.50;99.90
26599;DHT22;14240;51.064;16.612;2023-08-20T04:11:54;21.50;99.90
26599;DHT22;14240;51.064;16.612;2023-08-20T04:14:19;21.60;99.90
26599;DHT22;14240;51.064;16.612;2023-08-20T04:16:45;21.50;99.90
26599;DHT22;14240;51.064;16.612;2023-08-20T04:19:11;21.60;99.90
26599;DHT22;14240;51.064;16.612;2023-08-20T04:21:36;21.70;99.90
26599;DHT22;14240;51.064;16.612;2023-08-20T04:24:02;21.60;99.90
26599;DHT22;14240;51.064;16.612;2023-08-20T04:26:28;21.60;99.90
26599;DHT22;14240;51.064;16.612;2023-08-20T04:28:54;21.60;99.90
26599;DHT22;14240;51.064;16.612;2023-08-20T04:31:19;21.70;99.90
26599;DHT22;14240;51.064;16.612;2023-08-20T04:33:46;21.70;99.90
26599;DHT22;14240;51.064;16.612;2023-08-20T04:36:11;21.70;99.90
26599;DHT22;14240;51.064;16.612;2023-08-20T04:38:37;21.70;99.90
26599;DHT22;14240;51.064;16.612;2023-08-20T04:41:02;21.70;99.90
26599;DHT22;14240;51.064;16.612;2023-08-20T04:43:28;21.70;99.90
26599;DHT22;14240;51.064;16.612;2023-08-20T04:45:54;21.70;99.90
26599;DHT22;14240;51.064;16.612;2023-08-20T04:48:19;21.70;99.90
26599;DHT22;14240;51.064;16.612;2023-08-20T04:50:45;21.80;99.90
26599;DHT22;14240;51.064;16.612;2023-08-20T04:53:10;21.80;99.90
26599;DHT22;14240;51.064;16.612;2023-08-20T04:55:36;21.80;99.90
26599;DHT22;14240;51.064;16.612;2023-08-20T04:58:01;21.90;99.90
26599;DHT22;14240;51.064;16.612;2023-08-20T05:00:27;21.90;99.90
26599;DHT22;14240;51.064;16.612;2023-08-20T05:02:54;21.90;99.90
26599;DHT22;14240;51.064;16.612;2023-08-20T05:05:21;22.00;99.90
26599;DHT22;14240;51.064;16.612;2023-08-20T05:07:47;22.00;99.90
26599;DHT22;14240;51.064;16.612;2023-08-20T05:10:12;22.10;99.90
26599;DHT22;14240;51.064;16.612;2023-08-20T05:12:38;22.00;99.90
26599;DHT22;14240;51.064;16.612;2023-08-20T05:15:04;22.10;99.90
26599;DHT22;14240;51.064;16.612;2023-08-20T05:17:30;22.10;99.90
26599;DHT22;14240;51.064;16.612;2023-08-20T05:19:55;22.20;99.90
26599;DHT22;14240;51.064;16.612;2023-08-20T05:22:21;22.30;99.90
26599;DHT22;14240;51.064;16.612;2023-08-20T05:24:46;22.30;99.90
26599;DHT22;14240;51.064;16.612;2023-08-20T05:27:14;22.40;99.90
26599;DHT22;14240;51.064;16.612;2023-08-20T05:29:40;22.50;99.90
26599;DHT22;14240;51.064;16.612;2023-08-20T05:32:07;22.50;99.90
26599;DHT22;14240;51.064;16.612;2023-08-20T05:34:32;22.60;99.90
26599;DHT22;14240;51.064;16.612;2023-08-20T05:36:58;22.70;99.90
26599;DHT22;14240;51.064;16.612;2023-08-20T05:39:24;22.70;99.90
26599;DHT22;14240;51.064;16.612;2023-08-20T05:41:52;22.80;99.90
26599;DHT22;14240;51.064;16.612;2023-08-20T05:44:17;22.90;99.90
26599;DHT22;14240;51.064;16.612;2023-08-20T05:46:43;23.00;99.90
26599;DHT22;14240;51.064;16.612;2023-08-20T05:49:09;23.10;99.90
26599;DHT22;14240;51.064;16.612;2023-08-20T05:51:34;23.20;99.90
26599;DHT22;14240;51.064;16.612;2023-08-20T05:54:00;23.30;99.90
26599;DHT22;14240;51.064;16.612;2023-08-20T05:56:25;23.40;99.90
26599;DHT22;14240;51.064;16.612;2023-08-20T05:58:51;23.50;99.90
26599;DHT22;14240;51.064;16.612;2023-08-20T06:01:17;23.60;99.90
26599;DHT22;14240;51.064;16.612;2023-08-20T06:03:42;23.70;99.90
26599;DHT22;14240;51.064;16.612;2023-08-20T06:06:08;23.80;99.90
26599;DHT22;14240;51.064;16.612;2023-08-20T06:08:33;23.90;99.90
26599;DHT22;14240;51.064;16.612;2023-08-20T06:10:59;23.90;99.90
26599;DHT22;14240;51.064;16.612;2023-08-20T06:13:24;24.00;99.90
26599;DHT22;14240;51.064;16.612;2023-08-20T06:15:50;24.10;99.90
26599;DHT22;14240;51.064;16.612;2023-08-20T06:18:15;24.20;99.90
26599;DHT22;14240;51.064;16.612;2023-08-20T06:20:41;24.30;99.90
26599;DHT22;14240;51.064;16.612;2023-08-20T06:23:07;24.30;99.90
26599;DHT22;14240;51.064;16.612;2023-08-20T06:25:32;24.40;99.90
26599;DHT22;14240;51.064;16.612;2023-08-20T06:27:58;24.50;99.90
26599;DHT22;14240;51.064;16.612;2023-08-20T06:30:24;24.60;99.90
26599;DHT22;14240;51.064;16.612;2023-08-20T06:32:49;24.70;99.90
26599;DHT22;14240;51.064;16.612;2023-08-20T06:35:15;24.80;99.90
26599;DHT22;14240;51.064;16.612;2023-08-20T06:37:40;24.90;99.90
26599;DHT22;14240;51.064;16.612;2023-08-20T06:40:07;25.00;99.90
26599;DHT22;14240;51.064;16.612;2023-08-20T06:42:33;25.10;99.90
26599;DHT22;14240;51.064;16.612;2023-08-20T06:44:58;25.20;99.90
26599;DHT22;14240;51.064;16.612;2023-08-20T06:47:24;25.30;99.90
26599;DHT22;14240;51.064;16.612;2023-08-20T06:49:50;25.30;99.90
26599;DHT22;14240;51.064;16.612;2023-08-20T06:52:16;25.40;99.90
26599;DHT22;14240;51.064;16.612;2023-08-20T06:54:42;25.50;99.90
26599;DHT22;14240;51.064;16.612;2023-08-20T06:57:07;25.60;99.90
26599;DHT22;14240;51.064;16.612;2023-08-20T06:59:33;25.80;99.90
26599;DHT22;14240;51.064;16.612;2023-08-20T07:01:58;25.90;99.90
26599;DHT22;14240;51.064;16.612;2023-08-20T07:04:24;26.00;99.90
26599;DHT22;14240;51.064;16.612;2023-08-20T07:06:51;26.10;99.90
26599;DHT22;14240;51.064;16.612;2023-08-20T07:09:16;26.30;99.90
26599;DHT22;14240;51.064;16.612;2023-08-20T07:11:42;26.40;99.90
26599;DHT22;14240;51.064;16.612;2023-08-20T07:14:07;26.60;99.90
26599;DHT22;14240;51.064;16.612;2023-08-20T07:16:33;26.70;99.90
26599;DHT22;14240;51.064;16.612;2023-08-20T07:18:59;26.90;99.90
26599;DHT22;14240;51.064;16.612;2023-08-20T07:21:24;27.00;99.90
26599;DHT22;14240;51.064;16.612;2023-08-20T07:23:50;27.20;99.90
26599;DHT22;14240;51.064;16.612;2023-08-20T07:26:16;27.30;99.90
26599;DHT22;14240;51.064;16.612;2023-08-20T07:28:41;27.50;99.90
26599;DHT22;14240;51.064;16.612;2023-08-20T07:31:29;27.60;99.90
26599;DHT22;14240;51.064;16.612;2023-08-20T07:33:56;27.70;99.90
26599;DHT22;14240;51.064;16.612;2023-08-20T07:36:23;27.90;99.90
26599;DHT22;14240;51.064;16.612;2023-08-20T07:38:50;28.00;99.90
26599;DHT22;14240;51.064;16.612;2023-08-20T07:41:16;28.10;99.90
26599;DHT22;14240;51.064;16.612;2023-08-20T07:43:42;28.30;99.90
26599;DHT22;14240;51.064;16.612;2023-08-20T07:46:08;28.30;99.90
26599;DHT22;14240;51.064;16.612;2023-08-20T07:48:35;28.40;99.90
26599;DHT22;14240;51.064;16.612;2023-08-20T07:51:01;28.50;99.90
26599;DHT22;14240;51.064;16.612;2023-08-20T07:53:28;28.50;99.90
26599;DHT22;14240;51.064;16.612;2023-08-20T07:55:54;28.60;99.90
26599;DHT22;14240;51.064;16.612;2023-08-20T07:58:20;28.70;99.90
26599;DHT22;14240;51.064;16.612;2023-08-20T08:00:45;28.70;99.90
26599;DHT22;14240;51.064;16.612;2023-08-20T08:03:11;28.80;99.90
26599;DHT22;14240;51.064;16.612;2023-08-20T08:05:36;28.80;99.90
26599;DHT22;14240;51.064;16.612;2023-08-20T08:08:02;28.70;99.90
26599;DHT22;14240;51.064;16.612;2023-08-20T08:10:28;28.70;99.90
26599;DHT22;14240;51.064;16.612;2023-08-20T08:12:54;28.70;99.90
26599;DHT22;14240;51.064;16.612;2023-08-20T08:15:20;28.70;99.90
26599;DHT22;14240;51.064;16.612;2023-08-20T08:17:46;28.70;99.90
26599;DHT22;14240;51.064;16.612;2023-08-20T08:20:11;28.70;99.90
26599;DHT22;14240;51.064;16.612;2023-08-20T08:22:37;28.70;99.90
26599;DHT22;14240;51.064;16.612;2023-08-20T08:25:03;28.70;99.90
26599;DHT22;14240;51.064;16.612;2023-08-20T08:27:28;28.70;99.90
26599;DHT22;14240;51.064;16.612;2023-08-20T08:29:54;28.70;99.90
26599;DHT22;14240;51.064;16.612;2023-08-20T08:32:19;28.70;99.90
26599;DHT22;14240;51.064;16.612;2023-08-20T08:34:45;28.70;99.90
26599;DHT22;14240;51.064;16.612;2023-08-20T08:37:11;28.60;99.90
26599;DHT22;14240;51.064;16.612;2023-08-20T08:39:36;28.60;99.90
26599;DHT22;14240;51.064;16.612;2023-08-20T08:42:04;28.60;99.90
26599;DHT22;14240;51.064;16.612;2023-08-20T08:44:33;28.60;99.90
26599;DHT22;14240;51.064;16.612;2023-08-20T08:46:59;28.60;99.90
26599;DHT22;14240;51.064;16.612;2023-08-20T08:49:25;28.60;99.90
26599;DHT22;14240;51.064;16.612;2023-08-20T08:51:53;28.50;99.90
26599;DHT22;14240;51.064;16.612;2023-08-20T08:54:22;28.50;99.90
26599;DHT22;14240;51.064;16.612;2023-08-20T08:56:48;28.50;99.90
26599;DHT22;14240;51.064;16.612;2023-08-20T08:59:14;28.50;99.90
26599;DHT22;14240;51.064;16.612;2023-08-20T09:01:41;28.50;99.90
26599;DHT22;14240;51.064;16.612;2023-08-20T09:04:07;28.50;99.90
26599;DHT22;14240;51.064;16.612;2023-08-20T09:06:49;28.50;99.90
26599;DHT22;14240;51.064;16.612;2023-08-20T09:09:16;28.40;99.90
26599;DHT22;14240;51.064;16.612;2023-08-20T09:11:42;28.40;99.90
26599;DHT22;14240;51.064;16.612;2023-08-20T09:14:38;28.40;99.90
26599;DHT22;14240;51.064;16.612;2023-08-20T09:17:04;28.40;99.90
26599;DHT22;14240;51.064;16.612;2023-08-20T09:19:34;28.40;99.90
26599;DHT22;14240;51.064;16.612;2023-08-20T09:22:00;28.40;99.90
26599;DHT22;14240;51.064;16.612;2023-08-20T09:25:00;28.40;99.90
26599;DHT22;14240;51.064;16.612;2023-08-20T09:27:19;28.30;99.90
26599;DHT22;14240;51.064;16.612;2023-08-20T09:29:55;28.40;99.90
26599;DHT22;14240;51.064;16.612;2023-08-20T09:32:26;28.40;99.90
26599;DHT22;14240;51.064;16.612;2023-08-20T09:34:53;28.40;99.90
26599;DHT22;14240;51.064;16.612;2023-08-20T09:37:21;28.40;99.90
26599;DHT22;14240;51.064;16.612;2023-08-20T09:39:47;28.50;99.90
26599;DHT22;14240;51.064;16.612;2023-08-20T09:42:13;28.50;99.90
26599;DHT22;14240;51.064;16.612;2023-08-20T09:44:40;28.50;99.90
26599;DHT22;14240;51.064;16.612;2023-08-20T09:47:11;28.60;99.90
26599;DHT22;14240;51.064;16.612;2023-08-20T09:52:05;28.70;99.90
26599;DHT22;14240;51.064;16.612;2023-08-20T09:57:12;28.90;99.90
26599;DHT22;14240;51.064;16.612;2023-08-20T09:59:39;29.10;99.90
26599;DHT22;14240;51.064;16.612;2023-08-20T10:02:07;29.30;99.90
26599;DHT22;14240;51.064;16.612;2023-08-20T10:04:35;29.40;99.90
26599;DHT22;14240;51.064;16.612;2023-08-20T10:07:02;29.60;99.90
26599;DHT22;14240;51.064;16.612;2023-08-20T10:09:28;29.80;99.90
26599;DHT22;14240;51.064;16.612;2023-08-20T10:11:54;29.90;99.90
26599;DHT22;14240;51.064;16.612;2023-08-20T10:14:20;30.10;99.90
26599;DHT22;14240;51.064;16.612;2023-08-20T10:16:45;30.20;99.90
26599;DHT22;14240;51.064;16.612;2023-08-20T10:19:11;30.30;99.90
26599;DHT22;14240;51.064;16.612;2023-08-20T10:21:44;30.40;99.90
26599;DHT22;14240;51.064;16.612;2023-08-20T10:24:10;30.50;99.90
26599;DHT22;14240;51.064;16.612;2023-08-20T10:26:36;30.70;99.90
26599;DHT22;14240;51.064;16.612;2023-08-20T10:29:36;30.70;99.90
26599;DHT22;14240;51.064;16.612;2023-08-20T10:32:09;30.90;99.90
26599;DHT22;14240;51.064;16.612;2023-08-20T10:34:39;31.00;99.90
26599;DHT22;14240;51.064;16.612;2023-08-20T10:37:15;31.00;99.90
26599;DHT22;14240;51.064;16.612;2023-08-20T10:39:41;31.10;99.90
26599;DHT22;14240;51.064;16.612;2023-08-20T10:42:24;31.30;99.90
26599;DHT22;14240;51.064;16.612;2023-08-20T10:45:00;31.40;99.50
26599;DHT22;14240;51.064;16.612;2023-08-20T10:50:08;31.60;99.20
26599;DHT22;14240;51.064;16.612;2023-08-20T10:52:50;31.60;98.80
26599;DHT22;14240;51.064;16.612;2023-08-20T10:55:23;31.70;99.40
26599;DHT22;14240;51.064;16.612;2023-08-20T10:57:58;31.80;98.90
26599;DHT22;14240;51.064;16.612;2023-08-20T11:00:25;31.80;98.20
26599;DHT22;14240;51.064;16.612;2023-08-20T11:02:52;31.90;98.50
26599;DHT22;14240;51.064;16.612;2023-08-20T11:05:19;32.00;98.60
26599;DHT22;14240;51.064;16.612;2023-08-20T11:07:47;32.10;98.30
26599;DHT22;14240;51.064;16.612;2023-08-20T11:10:16;32.10;99.10
26599;DHT22;14240;51.064;16.612;2023-08-20T11:12:43;32.20;99.00
26599;DHT22;14240;51.064;16.612;2023-08-20T11:15:10;32.20;98.20
26599;DHT22;14240;51.064;16.612;2023-08-20T11:17:46;32.30;97.50
26599;DHT22;14240;51.064;16.612;2023-08-20T11:20:14;32.30;97.20
26599;DHT22;14240;51.064;16.612;2023-08-20T11:22:40;32.20;96.30
26599;DHT22;14240;51.064;16.612;2023-08-20T11:25:10;32.30;97.00
26599;DHT22;14240;51.064;16.612;2023-08-20T11:27:39;32.40;97.10
26599;DHT22;14240;51.064;16.612;2023-08-20T11:30:05;32.40;96.30
26599;DHT22;14240;51.064;16.612;2023-08-20T11:32:31;32.50;96.10
26599;DHT22;14240;51.064;16.612;2023-08-20T11:34:57;32.50;95.90
26599;DHT22;14240;51.064;16.612;2023-08-20T11:37:23;32.50;95.70
26599;DHT22;14240;51.064;16.612;2023-08-20T11:39:49;32.50;95.50
26599;DHT22;14240;51.064;16.612;2023-08-20T11:42:15;32.50;95.40
26599;DHT22;14240;51.064;16.612;2023-08-20T11:44:46;32.60;95.80
26599;DHT22;14240;51.064;16.612;2023-08-20T11:47:18;32.60;95.20
26599;DHT22;14240;51.064;16.612;2023-08-20T11:49:44;32.60;95.60
26599;DHT22;14240;51.064;16.612;2023-08-20T11:52:10;32.70;95.90
26599;DHT22;14240;51.064;16.612;2023-08-20T11:54:38;32.70;95.40
26599;DHT22;14240;51.064;16.612;2023-08-20T11:57:05;32.80;94.90
26599;DHT22;14240;51.064;16.612;2023-08-20T11:59:31;32.80;95.40
26599;DHT22;14240;51.064;16.612;2023-08-20T12:02:02;32.90;95.30
26599;DHT22;14240;51.064;16.612;2023-08-20T12:04:31;33.00;95.10
26599;DHT22;14240;51.064;16.612;2023-08-20T12:07:09;33.00;95.00
26599;DHT22;14240;51.064;16.612;2023-08-20T12:09:35;33.00;95.10
26599;DHT22;14240;51.064;16.612;2023-08-20T12:12:01;33.00;94.80
26599;DHT22;14240;51.064;16.612;2023-08-20T12:14:27;33.10;94.70
26599;DHT22;14240;51.064;16.612;2023-08-20T12:16:56;33.10;94.10
26599;DHT22;14240;51.064;16.612;2023-08-20T12:19:22;33.00;93.70
26599;DHT22;14240;51.064;16.612;2023-08-20T12:21:48;33.10;93.70
26599;DHT22;14240;51.064;16.612;2023-08-20T12:24:14;33.10;93.40
26599;DHT22;14240;51.064;16.612;2023-08-20T12:26:40;33.10;93.30
26599;DHT22;14240;51.064;16.612;2023-08-20T12:29:06;33.10;93.50
26599;DHT22;14240;51.064;16.612;2023-08-20T12:31:33;33.10;93.10
26599;DHT22;14240;51.064;16.612;2023-08-20T12:33:59;33.10;93.00
26599;DHT22;14240;51.064;16.612;2023-08-20T12:36:25;33.00;93.30
26599;DHT22;14240;51.064;16.612;2023-08-20T12:38:50;33.00;92.80
26599;DHT22;14240;51.064;16.612;2023-08-20T12:41:16;33.00;92.90
26599;DHT22;14240;51.064;16.612;2023-08-20T12:43:41;32.90;93.00
26599;DHT22;14240;51.064;16.612;2023-08-20T12:46:07;32.90;93.10
26599;DHT22;14240;51.064;16.612;2023-08-20T12:48:33;32.90;93.20
26599;DHT22;14240;51.064;16.612;2023-08-20T12:50:58;32.90;93.10
26599;DHT22;14240;51.064;16.612;2023-08-20T12:53:24;32.90;92.90
26599;DHT22;14240;51.064;16.612;2023-08-20T12:55:50;33.00;93.40
26599;DHT22;14240;51.064;16.612;2023-08-20T12:58:15;33.00;92.70
26599;DHT22;14240;51.064;16.612;2023-08-20T13:00:41;33.10;92.30
26599;DHT22;14240;51.064;16.612;2023-08-20T13:03:07;33.10;91.70
26599;DHT22;14240;51.064;16.612;2023-08-20T13:05:33;33.10;92.20
26599;DHT22;14240;51.064;16.612;2023-08-20T13:07:59;33.10;92.00
26599;DHT22;14240;51.064;16.612;2023-08-20T13:10:25;33.10;92.20
26599;DHT22;14240;51.064;16.612;2023-08-20T13:12:54;33.10;91.90
26599;DHT22;14240;51.064;16.612;2023-08-20T13:15:22;33.10;92.20
26599;DHT22;14240;51.064;16.612;2023-08-20T13:17:49;33.10;92.20
26599;DHT22;14240;51.064;16.612;2023-08-20T13:20:16;33.10;92.30
26599;DHT22;14240;51.064;16.612;2023-08-20T13:22:48;33.10;91.50
26599;DHT22;14240;51.064;16.612;2023-08-20T13:25:14;33.10;91.60
26599;DHT22;14240;51.064;16.612;2023-08-20T13:27:40;33.10;91.70
26599;DHT22;14240;51.064;16.612;2023-08-20T13:30:07;33.10;91.80
26599;DHT22;14240;51.064;16.612;2023-08-20T13:32:37;33.10;92.00
26599;DHT22;14240;51.064;16.612;2023-08-20T13:35:02;33.10;92.30
26599;DHT22;14240;51.064;16.612;2023-08-20T13:37:31;33.00;92.30
26599;DHT22;14240;51.064;16.612;2023-08-20T13:39:58;33.10;92.20
26599;DHT22;14240;51.064;16.612;2023-08-20T13:42:24;33.10;91.80
26599;DHT22;14240;51.064;16.612;2023-08-20T13:44:50;33.10;92.10
26599;DHT22;14240;51.064;16.612;2023-08-20T13:47:15;33.10;92.30
26599;DHT22;14240;51.064;16.612;2023-08-20T13:49:41;33.10;91.90
26599;DHT22;14240;51.064;16.612;2023-08-20T13:52:06;33.00;91.50
26599;DHT22;14240;51.064;16.612;2023-08-20T13:54:32;33.10;91.10
26599;DHT22;14240;51.064;16.612;2023-08-20T13:56:58;33.10;91.30
26599;DHT22;14240;51.064;16.612;2023-08-20T13:59:24;33.00;91.50
26599;DHT22;14240;51.064;16.612;2023-08-20T14:01:49;33.00;91.20
26599;DHT22;14240;51.064;16.612;2023-08-20T14:04:15;32.90;90.70
26599;DHT22;14240;51.064;16.612;2023-08-20T14:06:41;32.90;90.80
26599;DHT22;14240;51.064;16.612;2023-08-20T14:09:06;32.80;91.70
26599;DHT22;14240;51.064;16.612;2023-08-20T14:11:32;32.80;91.60
26599;DHT22;14240;51.064;16.612;2023-08-20T14:13:58;32.80;91.30
26599;DHT22;14240;51.064;16.612;2023-08-20T14:16:23;32.70;91.30
26599;DHT22;14240;51.064;16.612;2023-08-20T14:18:49;32.60;90.80
26599;DHT22;14240;51.064;16.612;2023-08-20T14:21:15;32.60;90.60
26599;DHT22;14240;51.064;16.612;2023-08-20T14:23:40;32.60;90.20
26599;DHT22;14240;51.064;16.612;2023-08-20T14:26:06;32.60;90.50
26599;DHT22;14240;51.064;16.612;2023-08-20T14:28:33;32.50;90.90
26599;DHT22;14240;51.064;16.612;2023-08-20T14:31:02;32.50;91.50
26599;DHT22;14240;51.064;16.612;2023-08-20T14:33:31;32.50;91.60
26599;DHT22;14240;51.064;16.612;2023-08-20T14:35:57;32.40;91.40
26599;DHT22;14240;51.064;16.612;2023-08-20T14:38:23;32.40;91.40
26599;DHT22;14240;51.064;16.612;2023-08-20T14:40:48;32.40;91.50
26599;DHT22;14240;51.064;16.612;2023-08-20T14:43:14;32.40;92.10
26599;DHT22;14240;51.064;16.612;2023-08-20T14:45:40;32.40;91.80
26599;DHT22;14240;51.064;16.612;2023-08-20T14:48:05;32.40;91.40
26599;DHT22;14240;51.064;16.612;2023-08-20T14:50:31;32.50;92.00
26599;DHT22;14240;51.064;16.612;2023-08-20T14:52:58;32.50;91.60
26599;DHT22;14240;51.064;16.612;2023-08-20T14:55:24;32.50;90.90
26599;DHT22;14240;51.064;16.612;2023-08-20T14:57:49;32.50;90.40
26599;DHT22;14240;51.064;16.612;2023-08-20T15:00:15;32.40;91.30
26599;DHT22;14240;51.064;16.612;2023-08-20T15:02:46;32.50;90.80
26599;DHT22;14240;51.064;16.612;2023-08-20T15:05:12;32.50;91.20
26599;DHT22;14240;51.064;16.612;2023-08-20T15:07:37;32.50;91.80
26599;DHT22;14240;51.064;16.612;2023-08-20T15:10:04;32.50;91.90
26599;DHT22;14240;51.064;16.612;2023-08-20T15:12:36;32.50;91.40
26599;DHT22;14240;51.064;16.612;2023-08-20T15:15:05;32.60;91.50
26599;DHT22;14240;51.064;16.612;2023-08-20T15:17:31;32.50;91.30
26599;DHT22;14240;51.064;16.612;2023-08-20T15:19:58;32.50;91.60
26599;DHT22;14240;51.064;16.612;2023-08-20T15:22:24;32.40;91.70
26599;DHT22;14240;51.064;16.612;2023-08-20T15:24:50;32.30;91.70
26599;DHT22;14240;51.064;16.612;2023-08-20T15:27:17;32.30;91.80
26599;DHT22;14240;51.064;16.612;2023-08-20T15:29:43;32.30;91.90